Address 0x51e7b8564f50ec4ad91877e39274bda7e6eb880a 19

 
  Note: Our ether balance display is temporarily unavailable. Please check back later.
Txn Hash Method
Block
From
To
Value [Txn Fee]
0xf725e3b9edac3b72d1278fe92760589127d67469412ad49bdc9f20a3e2dbf713Redeem Underlyin...46963402022-01-16 13:00:257 days 20 hrs ago0x51e7b8564f50ec4ad91877e39274bda7e6eb880aOUT Hundred Finance: hUSDC0 ETH0.001057256273 ETH
0x7b4350292a9d6652514bfb90a85fffe1ad2a922c0172e79716404454c45c5980Repay Borrow46962892022-01-16 12:57:567 days 20 hrs ago0x51e7b8564f50ec4ad91877e39274bda7e6eb880aOUT Hundred Finance: hAETH0.012718016972861 ETH0.001002336757 ETH
0xd25b9fdcdacc6ce64019f45bc253d1900cf3d00dcc9f42a79d9f876abcbaedacBorrow46962462022-01-16 12:57:167 days 20 hrs ago0x51e7b8564f50ec4ad91877e39274bda7e6eb880aOUT Hundred Finance: hAETH0 ETH0.00157152346 ETH
0x51051d224ef4bc381625e8b1468ae442b6cb94170effe31e181a37cc892a1116Enter Markets46962382022-01-16 12:57:167 days 20 hrs ago0x51e7b8564f50ec4ad91877e39274bda7e6eb880aOUT Hundred Finance: Comptroller0 ETH0.001336655225 ETH
0xdab240740bcd3eb54da9d8ad8466b5eb5e700fa00751cfd0eeed2c1d1b4df330Mint46962302022-01-16 12:56:207 days 20 hrs ago0x51e7b8564f50ec4ad91877e39274bda7e6eb880aOUT Hundred Finance: hUSDC0 ETH0.001030135266 ETH
0x97b188882cae9de6e135bae2028fe9df7013a860df08d29d54c183048c6afc93Mint46962002022-01-16 12:54:497 days 20 hrs ago0x51e7b8564f50ec4ad91877e39274bda7e6eb880aOUT Hundred Finance: hUSDC0 ETH0.001159266103 ETH
0xeff0fc4b2662f8c4f83c602e619d1c2a38b776687b79e2a22b7ff66d3b88e29cMix Swap46961542022-01-16 12:53:497 days 20 hrs ago0x51e7b8564f50ec4ad91877e39274bda7e6eb880aOUT 0x3b6067d4caa8a14c63fdbe6318f27a0bbc9f92370 ETH0.001918013422 ETH
0x41936ac9c820dda56103771d9dcd0d169ba5c9bcb1640006e5d2c2a237138581Deposit46902132022-01-16 8:06:328 days 1 hr ago0x51e7b8564f50ec4ad91877e39274bda7e6eb880aOUT Hundred Finance: hUSDC Gauge0 ETH0.001985686199 ETH
0x37766fa3c85d3acd473fc2c055a3d4b8135bb4706e97ef8cde05570b3b61bc17Approve46902072022-01-16 8:06:328 days 1 hr ago0x51e7b8564f50ec4ad91877e39274bda7e6eb880aOUT Hundred Finance: hUSDC0 ETH0.001214312158 ETH
0xddf565c89a45fe1cc9394adc76c7db083eb0387a5ff61aee3299cb0d0a306848Mint46901952022-01-16 8:05:408 days 1 hr ago0x51e7b8564f50ec4ad91877e39274bda7e6eb880aOUT Hundred Finance: hUSDC0 ETH0.001409779724 ETH
0x911e361b2c2d67c2444abe205e31ca125efa30a3861855e4488fbcb79c5c331cApprove46901912022-01-16 8:05:078 days 1 hr ago0x51e7b8564f50ec4ad91877e39274bda7e6eb880aOUT 0xff970a61a04b1ca14834a43f5de4533ebddb5cc80 ETH0.001216280379 ETH
0x467bc76dcba51f986972ad74a8df9d77099f9838aa5e7641533b069ef74e1829Mix Swap46901722022-01-16 8:03:408 days 1 hr ago0x51e7b8564f50ec4ad91877e39274bda7e6eb880aOUT 0x3b6067d4caa8a14c63fdbe6318f27a0bbc9f92370 ETH0.002273845678 ETH
0xb2ec5e32bced3f8f4bdb0e3ace1473dac35c6a93407606850ea69a9557d78994Mix Swap46655992022-01-15 11:48:008 days 21 hrs ago0x51e7b8564f50ec4ad91877e39274bda7e6eb880aOUT 0x3b6067d4caa8a14c63fdbe6318f27a0bbc9f92370 ETH0.002501969545 ETH
0x63b744e585ed542011f9dda84394311ca9df55e99e041dddb10d70ee6023bce3Mix Swap46653462022-01-15 11:32:268 days 22 hrs ago0x51e7b8564f50ec4ad91877e39274bda7e6eb880aOUT 0x3b6067d4caa8a14c63fdbe6318f27a0bbc9f92370 ETH0.002378699596 ETH
0x6f16625070a0b34c916a6a6cebb6fc80c55ac56f285f6dfeaf29a2f933427f9f0xc04b8d5945299182022-01-10 12:58:2113 days 20 hrs ago0x51e7b8564f50ec4ad91877e39274bda7e6eb880aOUT Uniswap V3: Router0 ETH0.00139885728 ETH
0x34c8511adca411122ad6c73be4e9b3faba99684f0b29c454813221433655d543Unstake Gmx45297522022-01-10 12:52:1313 days 20 hrs ago0x51e7b8564f50ec4ad91877e39274bda7e6eb880aOUT 0xa906f338cb21815cbc4bc87ace9e68c87ef8d8f10 ETH0.001472398134 ETH
0xdd17f86eb56bf160e94cbd2f00960bbcfe480f72429720d23bf1be982f3ef44dHandle Rewards45297162022-01-10 12:51:2613 days 20 hrs ago0x51e7b8564f50ec4ad91877e39274bda7e6eb880aOUT 0xa906f338cb21815cbc4bc87ace9e68c87ef8d8f10 ETH0.001909332645 ETH
0xd6483156686ac5b091b1bf2bd072711d7da14a128001265d023a3970413808efSwap Exact Token...45049972022-01-09 5:20:5615 days 4 hrs ago0x51e7b8564f50ec4ad91877e39274bda7e6eb880aOUT SushiSwap: Router0 ETH0.001685987863 ETH
0x445f4c806ef18dca2ae47fdd8f9d4ede54fb44e1ca4ba865bbda0ff31f32b095Approve45049932022-01-09 5:20:2815 days 4 hrs ago0x51e7b8564f50ec4ad91877e39274bda7e6eb880aOUT 0x1622bf67e6e5747b81866fe0b85178a93c7f86e30 ETH0.001040166905 ETH
0x54c698efd0e894ca1810a6a19e550117975e4b81afdf52253dd405cf3dd2c2e9Unstake45049872022-01-09 5:19:3615 days 4 hrs ago0x51e7b8564f50ec4ad91877e39274bda7e6eb880aOUT Arbi's Finance: Staking0 ETH0.000966023005 ETH
0x538057721bc5277047479d1a69a660615f4b2023934e1ac8ed6ec47f4d614fb7Approve45015632022-01-09 1:53:3115 days 7 hrs ago0x51e7b8564f50ec4ad91877e39274bda7e6eb880aOUT Arbi's Finance: sUmami Token0 ETH0.000983046343 ETH
0xfaf6e968438e10a036c854ed1357f8203a7d15c6d084734834ed57a43cb596e8Swap Exact Token...44831552022-01-08 14:56:1915 days 18 hrs ago0x51e7b8564f50ec4ad91877e39274bda7e6eb880aOUT SushiSwap: Router0 ETH0.001081278114 ETH
0x535afc139081eb16c3013a968fe4f314828a1f274b0e1f1052c742973d10ae64Harvest All44831362022-01-08 14:54:2615 days 18 hrs ago0x51e7b8564f50ec4ad91877e39274bda7e6eb880aOUT Treasure DAO: Mine0 ETH0.000844858468 ETH
0xd56d4dbed4e748342eee0076534a93e5159e46cb5f0078a4c14c6a324f2d6707Stake44319552022-01-07 0:45:3917 days 8 hrs ago0x51e7b8564f50ec4ad91877e39274bda7e6eb880aOUT Arbi's Finance: Staking Helper0 ETH0.000965020818 ETH
0xa772068d2d5db69a7837aa89a58432607ff8665c66546b7298b6d7af6c1152a1Approve44319412022-01-07 0:45:3917 days 8 hrs ago0x51e7b8564f50ec4ad91877e39274bda7e6eb880aOUT 0x1622bf67e6e5747b81866fe0b85178a93c7f86e30 ETH0.000998412562 ETH
[ Download CSV Export 
Parent Txn Hash Block From To Value
Loading

Contract Name:
0 ETH

Compiler Version
0

Optimization Enabled:
0 ETH

Other Settings:
-NA-
Block Transaction Gas Used Reward
Age Block Fee Address BC Fee Address Voting Power Jailed Incoming
Block Uncle Number Difficulty Gas Used Reward
Loading
Loading
Make sure to use the "Vote Down" button for any spammy posts, and the "Vote Up" for interesting conversations.